createdAt,value
2019-02-24T00:00:37.665Z,-0.76
2019-02-24T00:03:06.203Z,-0.62
2019-02-24T00:05:34.720Z,-0.48
2019-02-24T00:08:03.218Z,-0.51
2019-02-24T00:10:31.722Z,-0.37
2019-02-24T00:13:00.217Z,-0.37
2019-02-24T00:15:28.722Z,-0.33
2019-02-24T00:17:57.204Z,-0.39
2019-02-24T00:20:25.729Z,-0.37
2019-02-24T00:22:54.214Z,-0.35
2019-02-24T00:25:22.727Z,-0.34
2019-02-24T00:27:51.218Z,-0.42
2019-02-24T00:30:19.726Z,-0.26
2019-02-24T00:32:48.371Z,-0.38
2019-02-24T00:35:16.884Z,-0.19
2019-02-24T00:37:45.375Z,-0.28
2019-02-24T00:40:13.956Z,-0.18
2019-02-24T00:42:42.603Z,-0.14
2019-02-24T00:45:11.113Z,-0.21
2019-02-24T00:47:39.609Z,-0.21
2019-02-24T00:50:09.567Z,-0.50
2019-02-24T00:52:38.071Z,-0.62
2019-02-24T00:55:07.824Z,-0.53
2019-02-24T00:57:36.315Z,-0.44
2019-02-24T01:00:07.212Z,-0.41
2019-02-24T01:02:35.692Z,-0.37
2019-02-24T01:05:05.548Z,-0.48
2019-02-24T01:07:34.038Z,-0.62
2019-02-24T01:10:02.791Z,-0.55
2019-02-24T01:12:31.288Z,-0.61
2019-02-24T01:14:59.803Z,-0.66
2019-02-24T01:17:28.295Z,-0.65
2019-02-24T01:19:56.811Z,-0.75
2019-02-24T01:22:25.301Z,-0.72
2019-02-24T01:24:53.823Z,-0.63
2019-02-24T01:27:22.317Z,-0.78
2019-02-24T01:29:50.839Z,-0.81
2019-02-24T01:32:19.336Z,-0.71
2019-02-24T01:34:47.850Z,-0.82
2019-02-24T01:37:16.347Z,-0.75
2019-02-24T01:39:44.860Z,-0.69
2019-02-24T01:42:13.414Z,-0.78
2019-02-24T01:44:41.941Z,-0.64
2019-02-24T01:47:10.514Z,-0.63
2019-02-24T01:49:39.046Z,-0.58
2019-02-24T01:52:07.546Z,-0.54
2019-02-24T01:54:36.034Z,-0.81
2019-02-24T01:57:04.548Z,-1.05
2019-02-24T01:59:33.044Z,-1.18
2019-02-24T02:02:01.561Z,-1.20
2019-02-24T02:04:30.049Z,-1.11
2019-02-24T02:06:58.576Z,-1.20
2019-02-24T02:09:27.171Z,-1.43
2019-02-24T02:11:55.695Z,-1.40
2019-02-24T02:14:24.187Z,-1.25
2019-02-24T02:16:52.700Z,-1.19
2019-02-24T02:19:21.188Z,-1.33
2019-02-24T02:21:49.697Z,-1.36
2019-02-24T02:24:18.190Z,-1.61
2019-02-24T02:26:46.695Z,-1.77
2019-02-24T02:29:15.188Z,-1.77
2019-02-24T02:31:43.695Z,-1.86
2019-02-24T02:34:12.189Z,-2.01
2019-02-24T02:36:40.701Z,-1.88
2019-02-24T02:39:09.195Z,-1.98
2019-02-24T02:41:38.944Z,-1.91
2019-02-24T02:44:07.584Z,-1.82
2019-02-24T02:46:36.173Z,-1.73
2019-02-24T02:49:04.744Z,-1.67
2019-02-24T02:51:33.323Z,-1.42
2019-02-24T02:54:01.812Z,-1.38
2019-02-24T02:56:30.321Z,-1.25
2019-02-24T02:58:58.804Z,-1.23
2019-02-24T03:01:27.325Z,-1.39
2019-02-24T03:03:55.812Z,-1.51
2019-02-24T03:06:25.977Z,-1.48
2019-02-24T03:08:54.464Z,-1.43
2019-02-24T03:11:22.985Z,-1.61
2019-02-24T03:13:51.473Z,-1.73
2019-02-24T03:16:23.057Z,-1.61
2019-02-24T03:18:51.792Z,-1.53
2019-02-24T03:21:20.375Z,-1.41
2019-02-24T03:23:48.871Z,-1.42
2019-02-24T03:26:17.385Z,-1.48
2019-02-24T03:28:45.880Z,-1.43
2019-02-24T03:31:14.396Z,-1.36
2019-02-24T03:33:44.930Z,-1.07
2019-02-24T03:36:13.116Z,-1.14
2019-02-24T03:38:41.605Z,-1.00
2019-02-24T03:41:10.125Z,-0.97
2019-02-24T03:43:38.614Z,-0.95
2019-02-24T03:46:07.201Z,-0.85
2019-02-24T03:48:35.686Z,-0.75
2019-02-24T03:51:04.198Z,-0.74
2019-02-24T03:53:32.690Z,-0.66
2019-02-24T03:56:01.199Z,-0.53
2019-02-24T03:58:29.756Z,-0.48
2019-02-24T04:00:58.341Z,-0.48
2019-02-24T04:03:26.892Z,-0.38
2019-02-24T04:05:55.453Z,-0.20
2019-02-24T04:08:23.979Z,-0.13
2019-02-24T04:10:52.489Z,-0.08
2019-02-24T04:13:20.985Z,-0.21
2019-02-24T04:15:49.498Z,-0.23
2019-02-24T04:18:17.991Z,-0.19
2019-02-24T04:20:46.479Z,-0.16
2019-02-24T04:23:15.001Z,-0.24
2019-02-24T04:25:43.489Z,-0.21
2019-02-24T04:28:12.009Z,-0.23
2019-02-24T04:30:40.502Z,-0.14
2019-02-24T04:33:09.011Z,-0.22
2019-02-24T04:35:37.495Z,-0.20
2019-02-24T04:38:06.020Z,-0.23
2019-02-24T04:40:34.501Z,-0.25
2019-02-24T04:43:03.024Z,-0.30
2019-02-24T04:45:31.495Z,-0.25
2019-02-24T04:48:00.013Z,-0.34
2019-02-24T04:50:28.517Z,-0.34
2019-02-24T04:52:57.022Z,-0.22
2019-02-24T04:55:25.508Z,-0.27
2019-02-24T04:57:54.029Z,-0.34
2019-02-24T05:00:22.522Z,-0.36
2019-02-24T05:02:51.030Z,-0.27
2019-02-24T05:05:19.520Z,-0.26
2019-02-24T05:07:48.030Z,-0.22
2019-02-24T05:10:16.516Z,-0.24
2019-02-24T05:12:45.026Z,-0.11
2019-02-24T05:15:13.588Z,-0.17
2019-02-24T05:17:42.096Z,0.01
2019-02-24T05:20:11.454Z,0.06
2019-02-24T05:22:39.963Z,0.03
2019-02-24T05:25:08.668Z,0.09
2019-02-24T05:27:37.174Z,0.14
2019-02-24T05:30:06.398Z,0.11
2019-02-24T05:32:34.911Z,0.21
2019-02-24T05:35:03.469Z,0.33
2019-02-24T05:37:31.980Z,0.35
2019-02-24T05:40:00.466Z,0.30
2019-02-24T05:42:28.988Z,0.33
2019-02-24T05:44:57.466Z,0.31
2019-02-24T05:47:25.981Z,0.45
2019-02-24T05:49:54.508Z,0.34
2019-02-24T05:52:23.019Z,0.25
2019-02-24T05:54:51.996Z,0.27
2019-02-24T05:57:20.605Z,0.30
2019-02-24T05:59:55.224Z,0.44
2019-02-24T06:02:19.326Z,0.34
2019-02-24T06:04:47.816Z,0.42
2019-02-24T06:07:16.332Z,0.51
2019-02-24T06:09:44.817Z,0.38
2019-02-24T06:12:13.331Z,0.46
2019-02-24T06:14:41.837Z,0.46
2019-02-24T06:17:10.394Z,0.60
2019-02-24T06:19:38.879Z,0.48
2019-02-24T06:22:07.386Z,0.39
2019-02-24T06:24:35.866Z,0.26
2019-02-24T06:27:04.386Z,0.39
2019-02-24T06:29:32.894Z,0.35
2019-02-24T06:32:01.410Z,0.51
2019-02-24T06:34:29.889Z,0.53
2019-02-24T06:36:58.410Z,0.75
2019-02-24T06:39:26.877Z,0.88
2019-02-24T06:41:55.380Z,0.84
2019-02-24T06:44:23.868Z,1.05
2019-02-24T06:46:52.359Z,1.13
2019-02-24T06:49:20.874Z,1.16
2019-02-24T06:51:49.360Z,1.14
2019-02-24T06:54:17.879Z,0.86
2019-02-24T06:56:46.355Z,0.86
2019-02-24T06:59:14.881Z,0.99
2019-02-24T07:01:43.429Z,1.10
2019-02-24T07:04:11.934Z,1.14
2019-02-24T07:06:40.425Z,0.95
2019-02-24T07:09:08.999Z,0.94
2019-02-24T07:11:37.506Z,0.96
2019-02-24T07:14:05.994Z,1.18
2019-02-24T07:16:34.480Z,1.25
2019-02-24T07:19:02.998Z,1.24
2019-02-24T07:21:31.475Z,1.46
2019-02-24T07:23:59.990Z,1.45
2019-02-24T07:26:28.476Z,1.62
2019-02-24T07:28:56.993Z,1.66
2019-02-24T07:31:25.481Z,1.82
2019-02-24T07:33:53.986Z,1.97
2019-02-24T07:36:22.483Z,1.96
2019-02-24T07:38:51.005Z,1.96
2019-02-24T07:41:19.495Z,1.94
2019-02-24T07:43:48.002Z,2.04
2019-02-24T07:46:16.492Z,2.16
2019-02-24T07:48:44.999Z,2.07
2019-02-24T07:51:13.849Z,2.27
2019-02-24T07:53:42.420Z,2.44
2019-02-24T07:56:10.931Z,2.58
2019-02-24T07:58:39.441Z,2.39
2019-02-24T08:01:07.978Z,2.21
2019-02-24T08:03:36.503Z,2.46
2019-02-24T08:06:04.988Z,2.67
2019-02-24T08:08:33.492Z,2.61
2019-02-24T08:11:02.745Z,2.75
2019-02-24T08:13:31.253Z,2.67
2019-02-24T08:19:35.948Z,2.89
2019-02-24T08:22:04.424Z,2.99
2019-02-24T08:24:32.962Z,2.60
2019-02-24T08:27:01.455Z,2.60
2019-02-24T08:29:30.723Z,2.59
2019-02-24T08:31:59.294Z,2.72
2019-02-24T08:34:29.323Z,2.76
2019-02-24T08:36:57.806Z,3.09
2019-02-24T08:39:26.311Z,3.08
2019-02-24T08:41:54.811Z,3.34
2019-02-24T08:44:23.333Z,3.69
2019-02-24T08:50:10.649Z,3.66
2019-02-24T08:52:40.037Z,3.82
2019-02-24T08:57:51.005Z,3.80
2019-02-24T09:03:11.701Z,3.51
2019-02-24T09:05:41.174Z,3.32
2019-02-24T09:08:09.685Z,3.29
2019-02-24T09:10:38.171Z,3.45
2019-02-24T09:13:06.796Z,3.31
2019-02-24T09:15:35.274Z,3.51
2019-02-24T09:18:03.759Z,3.48
2019-02-24T09:20:32.263Z,3.60
2019-02-24T09:23:00.749Z,3.68
2019-02-24T09:25:29.262Z,3.63
2019-02-24T09:27:57.983Z,3.45
2019-02-24T09:30:26.492Z,3.45
2019-02-24T09:32:55.014Z,3.58
2019-02-24T09:35:25.081Z,3.77
2019-02-24T09:37:55.386Z,3.70
2019-02-24T09:40:23.821Z,3.85
2019-02-24T09:42:55.341Z,3.88
2019-02-24T09:45:23.873Z,3.88
2019-02-24T09:47:52.363Z,4.20
2019-02-24T09:50:20.904Z,4.26
2019-02-24T09:52:49.403Z,4.24
2019-02-24T09:55:17.729Z,4.33
2019-02-24T09:57:46.261Z,4.46
2019-02-24T10:00:16.611Z,4.57
2019-02-24T10:02:45.950Z,4.35
2019-02-24T10:05:14.517Z,4.50
2019-02-24T10:07:43.019Z,4.86
2019-02-24T10:10:12.589Z,4.88
2019-02-24T10:12:41.071Z,4.92
2019-02-24T10:15:14.239Z,5.33
2019-02-24T10:17:42.723Z,5.32
2019-02-24T10:20:12.365Z,5.37
2019-02-24T10:22:40.916Z,5.71
2019-02-24T10:25:10.603Z,6.14
2019-02-24T10:27:39.710Z,6.34
2019-02-24T10:30:11.128Z,6.42
2019-02-24T10:32:39.942Z,6.46
2019-02-24T10:37:50.428Z,6.42
2019-02-24T10:40:24.904Z,6.36
2019-02-24T10:42:53.388Z,6.24
2019-02-24T10:45:21.915Z,6.29
2019-02-24T10:47:50.397Z,6.48
2019-02-24T10:50:18.910Z,6.74
2019-02-24T10:52:47.452Z,6.93
2019-02-24T10:55:15.924Z,6.92
2019-02-24T10:57:44.410Z,7.03
2019-02-24T11:00:20.674Z,6.95
2019-02-24T11:02:49.169Z,6.48
2019-02-24T11:05:17.816Z,6.74
2019-02-24T11:07:46.306Z,6.91
2019-02-24T11:10:14.976Z,7.18
2019-02-24T11:12:43.462Z,6.91
2019-02-24T11:15:13.019Z,6.93
2019-02-24T11:17:41.635Z,6.82
2019-02-24T11:20:14.848Z,6.50
2019-02-24T11:22:43.732Z,6.43
2019-02-24T11:25:12.778Z,6.46
2019-02-24T11:27:41.273Z,6.74
2019-02-24T11:30:14.762Z,7.03
2019-02-24T11:32:43.283Z,7.19
2019-02-24T11:35:12.649Z,7.37
2019-02-24T11:37:41.189Z,7.89
2019-02-24T11:40:17.428Z,8.58
2019-02-24T11:42:45.993Z,8.72
2019-02-24T11:45:14.576Z,9.12
2019-02-24T11:47:43.187Z,9.17
2019-02-24T11:50:12.722Z,9.66
2019-02-24T11:52:41.366Z,9.55
2019-02-24T11:55:30.140Z,9.81
2019-02-24T11:58:04.584Z,9.65
2019-02-24T12:00:33.547Z,10.19
2019-02-24T12:03:02.052Z,10.21
2019-02-24T12:05:34.518Z,10.83
2019-02-24T12:08:03.480Z,11.83
2019-02-24T12:10:31.992Z,10.17
2019-02-24T12:13:00.483Z,10.35
2019-02-24T12:15:28.993Z,10.82
2019-02-24T12:17:57.484Z,10.51
2019-02-24T12:20:26.040Z,10.07
2019-02-24T12:22:54.531Z,10.79
2019-02-24T12:25:24.179Z,10.93
2019-02-24T12:27:52.666Z,11.09
2019-02-24T12:30:21.210Z,11.82
2019-02-24T12:32:49.667Z,11.98
2019-02-24T12:35:18.181Z,11.64
2019-02-24T12:37:46.659Z,11.66
2019-02-24T12:40:16.014Z,12.52
2019-02-24T12:42:44.501Z,13.02
2019-02-24T12:45:13.089Z,12.34
2019-02-24T12:47:41.572Z,12.94
2019-02-24T12:50:16.438Z,14.32
2019-02-24T12:52:45.142Z,14.53
2019-02-24T12:57:55.957Z,15.81
2019-02-24T13:00:26.297Z,15.58
2019-02-24T13:02:55.216Z,14.22
2019-02-24T13:05:24.358Z,13.53
2019-02-24T13:07:56.470Z,12.31
2019-02-24T13:10:28.598Z,11.41
2019-02-24T13:13:16.579Z,12.04
2019-02-24T13:22:55.979Z,16.16
2019-02-24T13:30:38.864Z,19.15
2019-02-24T13:33:07.611Z,20.67
2019-02-24T13:38:18.650Z,17.26
2019-02-24T13:40:47.321Z,17.61
2019-02-24T13:43:17.716Z,21.03
2019-02-24T13:48:43.551Z,20.08
2019-02-24T13:51:12.345Z,21.10
2019-02-24T13:53:41.293Z,20.15
2019-02-24T13:58:52.039Z,18.05
2019-02-24T14:01:20.585Z,17.89
2019-02-24T14:03:49.747Z,13.69
2019-02-24T14:06:20.328Z,15.62
2019-02-24T14:08:48.601Z,16.50
2019-02-24T14:11:17.105Z,16.15
2019-02-24T14:13:45.878Z,16.36
2019-02-24T14:16:14.386Z,16.90
2019-02-24T14:18:43.221Z,16.89
2019-02-24T14:21:12.317Z,17.35
2019-02-24T14:23:42.839Z,18.36
2019-02-24T14:28:53.582Z,22.08
2019-02-24T14:31:22.104Z,21.19
2019-02-24T14:33:50.591Z,20.66
2019-02-24T14:36:19.106Z,18.85
2019-02-24T14:38:47.618Z,16.34
2019-02-24T14:41:16.129Z,14.91
2019-02-24T14:43:46.321Z,13.92
2019-02-24T14:46:14.835Z,12.97
2019-02-24T14:48:44.772Z,11.80
2019-02-24T14:51:13.323Z,11.32
2019-02-24T14:53:43.276Z,11.63
2019-02-24T14:56:11.785Z,11.06
2019-02-24T14:58:40.286Z,11.05
2019-02-24T15:01:08.813Z,10.83
2019-02-24T15:03:38.352Z,10.82
2019-02-24T15:06:06.913Z,10.68
2019-02-24T15:08:35.778Z,10.83
2019-02-24T15:11:04.626Z,10.85
2019-02-24T15:13:33.315Z,10.92
2019-02-24T15:16:01.817Z,10.63
2019-02-24T15:18:30.303Z,10.56
2019-02-24T15:20:58.890Z,10.58
2019-02-24T15:23:27.388Z,10.47
2019-02-24T15:25:55.886Z,10.21
2019-02-24T15:28:24.402Z,9.85
2019-02-24T15:30:52.894Z,9.51
2019-02-24T15:33:21.397Z,9.28
2019-02-24T15:35:49.890Z,9.05
2019-02-24T15:38:19.271Z,8.94
2019-02-24T15:40:48.231Z,8.60
2019-02-24T15:43:17.656Z,8.36
2019-02-24T15:48:45.254Z,7.52
2019-02-24T15:51:13.800Z,7.39
2019-02-24T15:53:42.276Z,7.44
2019-02-24T15:56:11.951Z,7.58
2019-02-24T15:58:42.682Z,7.79
2019-02-24T16:01:11.241Z,7.81
2019-02-24T16:03:39.744Z,8.05
2019-02-24T16:06:08.233Z,7.80
2019-02-24T16:08:36.778Z,7.70
2019-02-24T16:11:05.269Z,7.55
2019-02-24T16:13:33.756Z,7.51
2019-02-24T16:16:02.372Z,7.37
2019-02-24T16:18:30.887Z,7.42
2019-02-24T16:20:59.378Z,7.13
2019-02-24T16:23:27.885Z,6.93
2019-02-24T16:25:56.370Z,6.85
2019-02-24T16:28:24.872Z,6.67
2019-02-24T16:30:53.353Z,6.13
2019-02-24T16:33:22.168Z,5.79
2019-02-24T16:35:50.881Z,5.89
2019-02-24T16:38:20.862Z,5.52
2019-02-24T16:40:49.560Z,5.39
2019-02-24T16:43:18.082Z,5.26
2019-02-24T16:45:46.563Z,4.95
2019-02-24T16:48:15.101Z,4.68
2019-02-24T16:50:43.576Z,4.33
2019-02-24T16:53:12.085Z,3.95
2019-02-24T16:55:40.640Z,3.68
2019-02-24T16:58:09.150Z,3.53
2019-02-24T17:00:38.047Z,3.31
2019-02-24T17:03:07.262Z,3.31
2019-02-24T17:05:36.270Z,3.10
2019-02-24T17:08:04.891Z,2.89
2019-02-24T17:10:35.870Z,2.89
2019-02-24T17:13:04.969Z,2.74
2019-02-24T17:15:33.450Z,2.65
2019-02-24T17:18:01.957Z,2.47
2019-02-24T17:20:31.132Z,2.57
2019-02-24T17:22:59.625Z,2.60
2019-02-24T17:25:28.114Z,2.50
2019-02-24T17:27:56.802Z,2.29
2019-02-24T17:30:25.278Z,2.11
2019-02-24T17:32:53.791Z,2.15
2019-02-24T17:35:22.703Z,2.18
2019-02-24T17:37:51.243Z,2.20
2019-02-24T17:40:22.030Z,2.17
2019-02-24T17:42:51.127Z,2.07
2019-02-24T17:45:19.950Z,2.16
2019-02-24T17:47:48.777Z,2.19
2019-02-24T17:50:18.463Z,1.99
2019-02-24T17:52:47.546Z,1.79
2019-02-24T17:55:18.424Z,1.99
2019-02-24T17:57:47.010Z,1.96
2019-02-24T18:00:43.033Z,1.98
2019-02-24T18:03:11.908Z,2.03
2019-02-24T18:05:40.455Z,2.20
2019-02-24T18:08:09.316Z,2.11
2019-02-24T18:10:38.218Z,1.89
2019-02-24T18:13:06.883Z,1.86
2019-02-24T18:15:35.788Z,1.88
2019-02-24T18:21:00.277Z,1.83
2019-02-24T18:23:30.453Z,2.02
2019-02-24T18:29:11.383Z,1.67
2019-02-24T18:31:41.817Z,1.83
2019-02-24T18:34:10.515Z,1.76
2019-02-24T18:36:39.438Z,1.59
2019-02-24T18:39:08.724Z,1.56
2019-02-24T18:41:37.667Z,1.38
2019-02-24T18:44:06.623Z,1.60
2019-02-24T18:46:35.411Z,1.60
2019-02-24T18:49:04.397Z,1.58
2019-02-24T18:51:32.985Z,1.73
2019-02-24T18:54:01.511Z,1.80
2019-02-24T18:56:30.232Z,1.80
2019-02-24T18:58:59.284Z,1.68
2019-02-24T19:01:27.864Z,1.57
2019-02-24T19:03:58.010Z,1.39
2019-02-24T19:06:27.931Z,1.22
2019-02-24T19:09:02.346Z,1.28
2019-02-24T19:11:30.942Z,1.39
2019-02-24T19:13:59.473Z,1.35
2019-02-24T19:16:27.989Z,1.61
2019-02-24T19:18:56.515Z,1.65
2019-02-24T19:21:25.111Z,1.61
2019-02-24T19:23:53.659Z,1.31
2019-02-24T19:26:22.148Z,1.44
2019-02-24T19:28:50.735Z,1.56
2019-02-24T19:31:19.214Z,1.56
2019-02-24T19:33:47.725Z,1.50
2019-02-24T19:36:16.239Z,1.41
2019-02-24T19:38:44.748Z,1.22
2019-02-24T19:41:13.231Z,0.99
2019-02-24T19:43:41.765Z,0.97
2019-02-24T19:46:10.260Z,1.00
2019-02-24T19:48:42.328Z,1.05
2019-02-24T19:51:11.923Z,1.02
2019-02-24T19:53:40.426Z,0.99
2019-02-24T19:56:08.943Z,1.19
2019-02-24T19:58:51.322Z,1.19
2019-02-24T20:01:19.862Z,1.14
2019-02-24T20:03:50.496Z,1.04
2019-02-24T20:06:19.056Z,0.93
2019-02-24T20:08:51.920Z,0.53
2019-02-24T20:11:20.511Z,0.54
2019-02-24T20:13:49.206Z,0.81
2019-02-24T20:16:18.015Z,1.03
2019-02-24T20:18:46.627Z,1.23
2019-02-24T20:21:15.225Z,1.54
2019-02-24T20:23:53.371Z,2.17
2019-02-24T20:26:21.948Z,2.32
2019-02-24T20:28:50.559Z,2.61
2019-02-24T20:31:20.348Z,2.61
2019-02-24T20:33:51.226Z,2.51
2019-02-24T20:36:20.441Z,2.22
2019-02-24T20:38:49.134Z,2.22
2019-02-24T20:41:17.862Z,2.09
2019-02-24T20:43:47.423Z,1.87
2019-02-24T20:46:15.911Z,1.85
2019-02-24T20:48:44.423Z,1.72
2019-02-24T20:51:12.947Z,1.64
2019-02-24T20:53:41.678Z,1.72
2019-02-24T20:56:10.762Z,1.55
2019-02-24T20:58:40.348Z,1.29
2019-02-24T21:01:10.584Z,1.32
2019-02-24T21:03:39.618Z,1.25
2019-02-24T21:06:08.271Z,1.22
2019-02-24T21:08:37.557Z,1.09
2019-02-24T21:11:06.222Z,1.04
2019-02-24T21:13:34.733Z,0.95
2019-02-24T21:16:03.432Z,0.93
2019-02-24T21:18:32.657Z,0.80
2019-02-24T21:21:01.320Z,0.87
2019-02-24T21:23:32.386Z,0.87
2019-02-24T21:26:00.981Z,0.99
2019-02-24T21:28:29.519Z,1.05
2019-02-24T21:30:58.089Z,1.09
2019-02-24T21:33:26.687Z,1.05
2019-02-24T21:35:55.231Z,1.17
2019-02-24T21:38:23.768Z,1.09
2019-02-24T21:40:52.333Z,1.03
2019-02-24T21:43:20.901Z,0.88
2019-02-24T21:45:49.528Z,0.91
2019-02-24T21:48:18.160Z,0.69
2019-02-24T21:50:48.591Z,0.52
2019-02-24T21:53:17.389Z,0.47
2019-02-24T21:55:46.025Z,0.51
2019-02-24T21:58:15.057Z,0.48
2019-02-24T22:00:43.471Z,0.41
2019-02-24T22:03:12.185Z,0.59
2019-02-24T22:05:42.352Z,0.47
2019-02-24T22:08:10.893Z,0.39
2019-02-24T22:10:42.669Z,0.38
2019-02-24T22:13:11.243Z,0.48
2019-02-24T22:15:39.866Z,0.40
2019-02-24T22:18:08.378Z,0.31
2019-02-24T22:20:37.271Z,0.24
2019-02-24T22:23:05.772Z,0.13
2019-02-24T22:25:36.404Z,0.17
2019-02-24T22:28:06.521Z,0.18
2019-02-24T22:30:36.064Z,0.11
2019-02-24T22:33:04.571Z,0.03
2019-02-24T22:35:34.747Z,0.21
2019-02-24T22:38:03.164Z,0.20
2019-02-24T22:40:31.704Z,0.16
2019-02-24T22:43:00.210Z,0.02
2019-02-24T22:45:28.727Z,-0.12
2019-02-24T22:47:57.221Z,-0.20
2019-02-24T22:50:25.769Z,-0.23
2019-02-24T22:52:55.223Z,-0.12
2019-02-24T22:58:05.722Z,-0.25
2019-02-24T23:00:53.594Z,-0.38
2019-02-24T23:03:30.023Z,-0.20
2019-02-24T23:06:00.323Z,-0.11
2019-02-24T23:08:28.885Z,-0.40
2019-02-24T23:10:57.398Z,-0.30
2019-02-24T23:13:25.967Z,-0.09
2019-02-24T23:15:54.482Z,0.26
2019-02-24T23:18:22.963Z,0.26
2019-02-24T23:20:51.490Z,0.01
2019-02-24T23:23:20.062Z,-0.09
2019-02-24T23:25:49.036Z,-0.05
2019-02-24T23:28:18.554Z,0.20
2019-02-24T23:31:07.991Z,0.07
2019-02-24T23:33:36.497Z,0.07
2019-02-24T23:36:05.081Z,0.08
2019-02-24T23:38:33.581Z,0.09
2019-02-24T23:41:02.173Z,0.00
2019-02-24T23:43:30.801Z,-0.27
2019-02-24T23:45:59.263Z,-0.34
2019-02-24T23:48:27.750Z,-0.33
2019-02-24T23:50:56.292Z,-0.18
2019-02-24T23:53:25.328Z,0.01
